createdAt,value
2023-11-19T00:01:09.333Z,0.30
2023-11-19T00:03:58.219Z,0.28
2023-11-19T00:06:26.403Z,0.28
2023-11-19T00:08:54.354Z,0.29
2023-11-19T00:11:22.596Z,0.30
2023-11-19T00:13:50.525Z,0.30
2023-11-19T00:16:20.614Z,0.31
2023-11-19T00:18:48.855Z,0.30
2023-11-19T00:21:16.949Z,0.29
2023-11-19T00:23:45.075Z,0.30
2023-11-19T00:26:13.011Z,0.29
2023-11-19T00:28:42.318Z,0.28
2023-11-19T00:31:10.546Z,0.25
2023-11-19T00:36:17.367Z,0.20
2023-11-19T00:38:45.805Z,0.22
2023-11-19T00:41:13.730Z,0.23
2023-11-19T00:43:41.869Z,0.22
2023-11-19T00:46:09.907Z,0.23
2023-11-19T00:48:38.164Z,0.23
2023-11-19T00:51:06.276Z,0.25
2023-11-19T00:53:34.883Z,0.25
2023-11-19T00:56:02.843Z,0.27
2023-11-19T00:58:30.884Z,0.26
2023-11-19T01:00:59.304Z,0.27
2023-11-19T01:03:27.323Z,0.26
2023-11-19T01:05:55.339Z,0.26
2023-11-19T01:08:23.264Z,0.24
2023-11-19T01:10:51.333Z,0.18
2023-11-19T01:13:22.528Z,0.14
2023-11-19T01:15:50.928Z,0.13
2023-11-19T01:18:19.557Z,0.14
2023-11-19T01:20:48.230Z,0.15
2023-11-19T01:23:16.155Z,0.15
2023-11-19T01:25:44.870Z,0.15
2023-11-19T01:28:13.293Z,0.14
2023-11-19T01:30:41.287Z,0.14
2023-11-19T01:33:09.274Z,0.14
2023-11-19T01:35:37.470Z,0.13
2023-11-19T01:38:05.352Z,0.14
2023-11-19T01:40:36.737Z,0.15
2023-11-19T01:43:04.907Z,0.15
2023-11-19T01:45:32.984Z,0.16
2023-11-19T01:48:03.334Z,0.15
2023-11-19T01:50:33.035Z,0.15
2023-11-19T01:53:01.236Z,0.14
2023-11-19T01:55:29.571Z,0.14
2023-11-19T01:58:00.884Z,0.13
2023-11-19T02:00:28.889Z,0.13
2023-11-19T02:02:57.505Z,0.13
2023-11-19T02:05:26.172Z,0.13
2023-11-19T02:07:54.937Z,0.12
2023-11-19T02:10:22.880Z,0.13
2023-11-19T02:12:50.883Z,0.13
2023-11-19T02:15:19.108Z,0.13
2023-11-19T02:17:47.061Z,0.13
2023-11-19T02:20:15.064Z,0.13
2023-11-19T02:22:43.093Z,0.13
2023-11-19T02:25:40.469Z,0.14
2023-11-19T02:28:08.595Z,0.14
2023-11-19T02:30:36.567Z,0.14
2023-11-19T02:33:04.535Z,0.13
2023-11-19T02:35:33.140Z,0.13
2023-11-19T02:38:01.187Z,0.13
2023-11-19T02:40:29.192Z,0.13
2023-11-19T02:42:57.336Z,0.12
2023-11-19T02:45:26.772Z,0.12
2023-11-19T02:47:55.111Z,0.14
2023-11-19T02:50:24.056Z,0.14
2023-11-19T02:52:55.620Z,0.14
2023-11-19T02:55:24.195Z,0.14
2023-11-19T02:57:53.069Z,0.14
2023-11-19T03:00:22.253Z,0.14
2023-11-19T03:05:35.714Z,0.13
2023-11-19T03:08:03.770Z,0.15
2023-11-19T03:10:31.762Z,0.16
2023-11-19T03:12:59.802Z,0.15
2023-11-19T03:15:27.803Z,0.15
2023-11-19T03:17:55.760Z,0.16
2023-11-19T03:20:23.743Z,0.15
2023-11-19T03:22:51.880Z,0.15
2023-11-19T03:25:19.928Z,0.13
2023-11-19T03:27:49.211Z,0.13
2023-11-19T03:30:17.377Z,0.13
2023-11-19T03:32:45.289Z,0.13
2023-11-19T03:35:13.242Z,0.13
2023-11-19T03:37:41.296Z,0.14
2023-11-19T03:40:09.484Z,0.13
2023-11-19T03:42:37.384Z,0.12
2023-11-19T03:45:05.639Z,0.10
2023-11-19T03:47:33.605Z,0.09
2023-11-19T03:50:01.714Z,0.07
2023-11-19T03:52:30.128Z,0.05
2023-11-19T03:54:58.182Z,0.05
2023-11-19T03:57:26.307Z,0.04
2023-11-19T03:59:54.453Z,0.05
2023-11-19T04:02:22.648Z,0.04
2023-11-19T04:04:50.741Z,0.03
2023-11-19T04:07:18.679Z,0.03
2023-11-19T04:09:46.578Z,0.02
2023-11-19T04:12:14.672Z,0.01
2023-11-19T04:14:42.654Z,-0.01
2023-11-19T04:17:10.728Z,-0.01
2023-11-19T04:19:38.789Z,-0.02
2023-11-19T04:22:06.778Z,-0.03
2023-11-19T04:24:34.708Z,-0.04
2023-11-19T04:27:02.883Z,-0.06
2023-11-19T04:29:31.250Z,-0.08
2023-11-19T04:31:59.299Z,-0.10
2023-11-19T04:34:27.469Z,-0.12
2023-11-19T04:36:55.551Z,-0.14
2023-11-19T04:39:23.469Z,-0.15
2023-11-19T04:41:51.935Z,-0.17
2023-11-19T04:44:20.300Z,-0.19
2023-11-19T04:46:48.308Z,-0.23
2023-11-19T04:49:16.355Z,-0.28
2023-11-19T04:51:53.039Z,-0.34
2023-11-19T04:54:21.139Z,-0.41
2023-11-19T04:56:49.075Z,-0.49
2023-11-19T04:59:17.027Z,-0.56
2023-11-19T05:01:47.816Z,-0.63
2023-11-19T05:04:15.853Z,-0.68
2023-11-19T05:06:43.764Z,-0.74
2023-11-19T05:09:11.943Z,-0.78
2023-11-19T05:11:51.500Z,-0.84
2023-11-19T05:14:20.795Z,-0.88
2023-11-19T05:16:48.937Z,-0.92
2023-11-19T05:19:16.981Z,-0.95
2023-11-19T05:21:45.245Z,-0.97
2023-11-19T05:24:13.393Z,-0.99
2023-11-19T05:26:41.411Z,-1.00
2023-11-19T05:29:09.429Z,-1.00
2023-11-19T05:31:38.680Z,-1.00
2023-11-19T05:34:07.653Z,-0.99
2023-11-19T05:36:35.605Z,-0.98
2023-11-19T05:39:03.640Z,-0.98
2023-11-19T05:41:31.592Z,-0.97
2023-11-19T05:43:59.540Z,-0.96
2023-11-19T05:46:27.583Z,-0.95
2023-11-19T05:48:55.574Z,-0.95
2023-11-19T05:51:23.582Z,-0.96
2023-11-19T05:53:51.532Z,-0.98
2023-11-19T05:56:19.623Z,-1.01
2023-11-19T05:58:47.795Z,-1.04
2023-11-19T06:01:16.114Z,-1.05
2023-11-19T06:03:44.272Z,-1.07
2023-11-19T06:06:12.260Z,-1.08
2023-11-19T06:08:40.164Z,-1.09
2023-11-19T06:11:08.161Z,-1.08
2023-11-19T06:13:36.342Z,-1.07
2023-11-19T06:16:04.570Z,-1.06
2023-11-19T06:18:32.578Z,-1.04
2023-11-19T06:21:00.758Z,-1.01
2023-11-19T06:23:28.806Z,-0.96
2023-11-19T06:25:56.724Z,-0.92
2023-11-19T06:28:24.672Z,-0.87
2023-11-19T06:30:52.734Z,-0.83
2023-11-19T06:33:20.821Z,-0.79
2023-11-19T06:35:49.009Z,-0.74
2023-11-19T06:38:16.923Z,-0.70
2023-11-19T06:40:44.907Z,-0.65
2023-11-19T06:43:12.962Z,-0.61
2023-11-19T06:45:41.042Z,-0.55
2023-11-19T06:48:09.060Z,-0.50
2023-11-19T06:50:38.138Z,-0.43
2023-11-19T06:53:06.138Z,-0.37
2023-11-19T06:55:34.169Z,-0.32
2023-11-19T06:58:02.187Z,-0.30
2023-11-19T07:00:30.734Z,-0.25
2023-11-19T07:02:59.063Z,-0.21
2023-11-19T07:05:30.403Z,-0.16
2023-11-19T07:07:58.396Z,-0.12
2023-11-19T07:10:26.456Z,-0.09
2023-11-19T07:12:54.496Z,-0.06
2023-11-19T07:15:22.416Z,-0.04
2023-11-19T07:20:24.477Z,0.04
2023-11-19T07:22:54.577Z,0.08
2023-11-19T07:25:24.057Z,0.11
2023-11-19T07:27:52.885Z,0.14
2023-11-19T07:30:20.911Z,0.19
2023-11-19T07:32:48.808Z,0.27
2023-11-19T07:35:16.904Z,0.33
2023-11-19T07:37:44.866Z,0.39
2023-11-19T07:40:13.077Z,0.43
2023-11-19T07:42:41.225Z,0.48
2023-11-19T07:45:12.829Z,0.53
2023-11-19T07:47:41.145Z,0.57
2023-11-19T07:50:12.267Z,0.62
2023-11-19T07:52:40.418Z,0.67
2023-11-19T07:55:09.088Z,0.71
2023-11-19T07:57:37.062Z,0.74
2023-11-19T08:00:05.395Z,0.80
2023-11-19T08:02:41.010Z,0.88
2023-11-19T08:05:12.048Z,0.97
2023-11-19T08:07:40.315Z,1.09
2023-11-19T08:10:09.314Z,1.24
2023-11-19T08:12:37.428Z,1.39
2023-11-19T08:15:05.664Z,1.55
2023-11-19T08:17:35.156Z,1.68
2023-11-19T08:20:03.304Z,1.75
2023-11-19T08:22:31.282Z,1.77
2023-11-19T08:24:59.508Z,1.80
2023-11-19T08:27:27.627Z,1.79
2023-11-19T08:29:55.567Z,1.78
2023-11-19T08:32:27.409Z,1.79
2023-11-19T08:34:55.313Z,1.79
2023-11-19T08:37:23.972Z,1.82
2023-11-19T08:39:52.946Z,1.84
2023-11-19T08:42:20.830Z,1.84
2023-11-19T08:44:52.174Z,1.86
2023-11-19T08:47:20.753Z,1.92
2023-11-19T08:50:03.651Z,1.96
2023-11-19T08:52:35.352Z,1.99
2023-11-19T08:55:03.897Z,1.99
2023-11-19T08:57:35.182Z,2.00
2023-11-19T09:00:03.463Z,2.00
2023-11-19T09:02:31.633Z,2.00
2023-11-19T09:04:59.776Z,2.03
2023-11-19T09:07:27.824Z,2.07
2023-11-19T09:09:55.898Z,2.09
2023-11-19T09:12:47.829Z,2.11
2023-11-19T09:15:56.510Z,2.18
2023-11-19T09:18:30.098Z,2.28
2023-11-19T09:21:04.792Z,2.37
2023-11-19T09:23:33.117Z,2.43
2023-11-19T09:26:07.221Z,2.45
2023-11-19T09:28:35.681Z,2.52
2023-11-19T09:31:19.972Z,2.61
2023-11-19T09:34:02.455Z,2.84
2023-11-19T09:36:30.392Z,3.02
2023-11-19T09:38:58.512Z,3.17
2023-11-19T09:41:26.749Z,3.30
2023-11-19T09:43:54.932Z,3.40
2023-11-19T09:46:23.287Z,3.46
2023-11-19T09:48:52.875Z,3.40
2023-11-19T09:51:20.857Z,3.33
2023-11-19T09:53:49.014Z,3.28
2023-11-19T09:56:17.327Z,3.28
2023-11-19T09:58:45.449Z,3.27
2023-11-19T10:03:48.113Z,3.25
2023-11-19T10:06:16.447Z,3.30
2023-11-19T10:08:45.403Z,3.26
2023-11-19T10:11:14.405Z,3.25
2023-11-19T10:13:42.531Z,3.27
2023-11-19T10:16:11.517Z,3.27
2023-11-19T10:18:44.461Z,3.25
2023-11-19T10:21:15.631Z,3.28
2023-11-19T10:23:50.585Z,3.34
2023-11-19T10:26:19.284Z,3.45
2023-11-19T10:28:48.120Z,3.70
2023-11-19T10:31:16.805Z,3.87
2023-11-19T10:33:47.856Z,3.86
2023-11-19T10:36:16.159Z,3.77
2023-11-19T10:38:54.746Z,3.65
2023-11-19T10:41:30.053Z,3.52
2023-11-19T10:44:04.143Z,3.48
2023-11-19T10:46:42.764Z,3.41
2023-11-19T10:49:13.248Z,3.24
2023-11-19T10:51:47.842Z,3.13
2023-11-19T10:54:19.844Z,3.06
2023-11-19T10:57:02.212Z,2.98
2023-11-19T10:59:34.362Z,2.88
2023-11-19T11:02:10.949Z,2.78
2023-11-19T11:04:41.195Z,2.69
2023-11-19T11:07:10.202Z,2.59
2023-11-19T11:09:39.165Z,2.51
2023-11-19T11:12:07.534Z,2.45
2023-11-19T11:14:38.877Z,2.42
2023-11-19T11:17:07.341Z,2.36
2023-11-19T11:19:36.277Z,2.32
2023-11-19T11:22:08.167Z,2.29
2023-11-19T11:25:00.765Z,2.29
2023-11-19T11:27:45.089Z,2.28
2023-11-19T11:30:14.433Z,2.28
2023-11-19T11:32:52.075Z,2.24
2023-11-19T11:35:29.821Z,2.16
2023-11-19T11:38:10.401Z,2.09
2023-11-19T11:40:38.756Z,2.03
2023-11-19T11:43:26.658Z,2.01
2023-11-19T11:45:55.378Z,1.94
2023-11-19T11:48:28.362Z,1.90
2023-11-19T11:50:58.167Z,1.86
2023-11-19T11:53:26.926Z,1.83
2023-11-19T11:55:55.490Z,1.81
2023-11-19T11:58:27.651Z,1.80
2023-11-19T12:00:58.459Z,1.79
2023-11-19T12:03:28.108Z,1.77
2023-11-19T12:05:56.681Z,1.73
2023-11-19T12:08:28.769Z,1.72
2023-11-19T12:11:08.551Z,1.74
2023-11-19T12:13:55.720Z,1.75
2023-11-19T12:16:23.758Z,1.75
2023-11-19T12:18:51.904Z,1.75
2023-11-19T12:21:30.271Z,1.79
2023-11-19T12:24:03.958Z,1.79
2023-11-19T12:26:36.949Z,1.79
2023-11-19T12:29:08.364Z,1.78
2023-11-19T12:31:37.731Z,1.74
2023-11-19T12:34:08.840Z,1.69
2023-11-19T12:36:37.105Z,1.67
2023-11-19T12:39:05.304Z,1.66
2023-11-19T12:41:33.291Z,1.65
2023-11-19T12:44:10.419Z,1.62
2023-11-19T12:46:38.534Z,1.60
2023-11-19T12:49:16.224Z,1.58
2023-11-19T12:51:44.434Z,1.56
2023-11-19T12:54:13.643Z,1.56
2023-11-19T12:56:42.197Z,1.54
2023-11-19T12:59:13.496Z,1.50
2023-11-19T13:01:41.700Z,1.50
2023-11-19T13:04:19.631Z,1.49
2023-11-19T13:07:04.902Z,1.48
2023-11-19T13:09:42.573Z,1.45
2023-11-19T13:12:22.790Z,1.47
2023-11-19T13:14:51.000Z,1.48
2023-11-19T13:17:19.062Z,1.48
2023-11-19T13:19:49.657Z,1.48
2023-11-19T13:22:18.094Z,1.46
2023-11-19T13:24:46.517Z,1.43
2023-11-19T13:27:15.075Z,1.42
2023-11-19T13:29:43.509Z,1.44
2023-11-19T13:32:11.515Z,1.45
2023-11-19T13:34:39.821Z,1.42
2023-11-19T13:37:08.597Z,1.42
2023-11-19T13:39:36.751Z,1.40
2023-11-19T13:44:40.193Z,1.35
2023-11-19T13:47:11.560Z,1.34
2023-11-19T13:49:40.004Z,1.33
2023-11-19T13:52:08.120Z,1.32
2023-11-19T13:54:37.688Z,1.31
2023-11-19T13:57:08.143Z,1.30
2023-11-19T13:59:40.614Z,1.31
2023-11-19T14:02:09.082Z,1.30
2023-11-19T14:04:37.121Z,1.30
2023-11-19T14:07:06.425Z,1.30
2023-11-19T14:09:37.009Z,1.30
2023-11-19T14:12:05.222Z,1.31
2023-11-19T14:14:33.475Z,1.32
2023-11-19T14:19:33.839Z,1.35
2023-11-19T14:22:01.960Z,1.36
2023-11-19T14:24:30.594Z,1.37
2023-11-19T14:26:58.687Z,1.38
2023-11-19T14:29:27.116Z,1.37
2023-11-19T14:31:55.309Z,1.36
2023-11-19T14:34:23.755Z,1.35
2023-11-19T14:36:52.068Z,1.35
2023-11-19T14:39:20.382Z,1.36
2023-11-19T14:41:48.497Z,1.36
2023-11-19T14:44:19.346Z,1.37
2023-11-19T14:46:50.108Z,1.35
2023-11-19T14:49:19.465Z,1.36
2023-11-19T14:51:49.241Z,1.37
2023-11-19T14:54:17.793Z,1.39
2023-11-19T14:56:49.058Z,1.39
2023-11-19T14:59:17.823Z,1.39
2023-11-19T15:01:56.226Z,1.40
2023-11-19T15:04:24.439Z,1.41
2023-11-19T15:06:53.178Z,1.42
2023-11-19T15:09:21.433Z,1.44
2023-11-19T15:11:57.024Z,1.47
2023-11-19T15:14:25.785Z,1.50
2023-11-19T15:16:57.426Z,1.53
2023-11-19T15:19:25.435Z,1.55
2023-11-19T15:21:53.780Z,1.58
2023-11-19T15:24:22.154Z,1.61
2023-11-19T15:26:50.329Z,1.63
2023-11-19T15:29:18.642Z,1.66
2023-11-19T15:31:54.383Z,1.69
2023-11-19T15:34:25.107Z,1.72
2023-11-19T15:36:53.474Z,1.76
2023-11-19T15:39:22.632Z,1.80
2023-11-19T15:41:52.232Z,1.84
2023-11-19T15:44:20.394Z,1.87
2023-11-19T15:46:48.507Z,1.89
2023-11-19T15:49:18.389Z,1.92
2023-11-19T15:51:47.451Z,1.96
2023-11-19T15:54:15.896Z,2.00
2023-11-19T15:56:46.094Z,2.03
2023-11-19T15:59:14.274Z,2.07
2023-11-19T16:01:42.523Z,2.10
2023-11-19T16:04:11.004Z,2.13
2023-11-19T16:06:39.422Z,2.16
2023-11-19T16:09:07.654Z,2.20
2023-11-19T16:11:44.333Z,2.23
2023-11-19T16:14:20.279Z,2.27
2023-11-19T16:16:48.926Z,2.30
2023-11-19T16:19:16.930Z,2.33
2023-11-19T16:21:46.726Z,2.38
2023-11-19T16:24:16.790Z,2.42
2023-11-19T16:26:45.217Z,2.46
2023-11-19T16:29:13.354Z,2.50
2023-11-19T16:31:41.754Z,2.53
2023-11-19T16:34:12.872Z,2.56
2023-11-19T16:36:41.237Z,2.59
2023-11-19T16:41:44.785Z,2.65
2023-11-19T16:44:13.561Z,2.68
2023-11-19T16:46:42.201Z,2.69
2023-11-19T16:49:10.970Z,2.72
2023-11-19T16:51:39.630Z,2.75
2023-11-19T16:54:08.106Z,2.77
2023-11-19T16:56:39.749Z,2.80
2023-11-19T16:59:09.306Z,2.82
2023-11-19T17:01:37.547Z,2.83
2023-11-19T17:04:09.784Z,2.84
2023-11-19T17:06:41.221Z,2.86
2023-11-19T17:09:10.295Z,2.88
2023-11-19T17:11:38.784Z,2.89
2023-11-19T17:14:07.119Z,2.92
2023-11-19T17:16:40.252Z,2.94
2023-11-19T17:19:10.961Z,2.94
2023-11-19T17:21:39.293Z,2.92
2023-11-19T17:24:08.092Z,2.91
2023-11-19T17:29:07.303Z,2.91
2023-11-19T17:31:35.651Z,2.93
2023-11-19T17:34:04.864Z,2.94
2023-11-19T17:36:33.968Z,2.97
2023-11-19T17:39:02.603Z,2.99
2023-11-19T17:41:31.470Z,3.00
2023-11-19T17:43:59.735Z,3.04
2023-11-19T17:46:27.737Z,3.06
2023-11-19T17:48:59.499Z,3.07
2023-11-19T17:51:27.620Z,3.08
2023-11-19T17:53:57.738Z,3.09
2023-11-19T17:56:25.887Z,3.12
2023-11-19T17:58:54.073Z,3.15
2023-11-19T18:01:22.777Z,3.17
2023-11-19T18:03:51.326Z,3.20
2023-11-19T18:06:19.672Z,3.23
2023-11-19T18:08:48.098Z,3.25
2023-11-19T18:11:17.457Z,3.27
2023-11-19T18:13:46.684Z,3.29
2023-11-19T18:16:17.158Z,3.29
2023-11-19T18:18:45.543Z,3.32
2023-11-19T18:21:14.188Z,3.34
2023-11-19T18:23:42.182Z,3.35
2023-11-19T18:26:13.145Z,3.36
2023-11-19T18:28:41.234Z,3.37
2023-11-19T18:31:11.111Z,3.38
2023-11-19T18:33:39.727Z,3.39
2023-11-19T18:36:09.641Z,3.39
2023-11-19T18:38:46.304Z,3.40
2023-11-19T18:41:16.151Z,3.38
2023-11-19T18:43:44.569Z,3.37
2023-11-19T18:46:14.159Z,3.35
2023-11-19T18:48:42.244Z,3.32
2023-11-19T18:51:10.301Z,3.30
2023-11-19T18:53:41.531Z,3.28
2023-11-19T18:56:20.149Z,3.27
2023-11-19T18:58:53.508Z,3.27
2023-11-19T19:01:23.315Z,3.27
2023-11-19T19:03:51.645Z,3.28
2023-11-19T19:06:29.027Z,3.30
2023-11-19T19:09:06.365Z,3.32
2023-11-19T19:11:38.429Z,3.33
2023-11-19T19:14:06.707Z,3.35
2023-11-19T19:16:34.910Z,3.38
2023-11-19T19:19:03.084Z,3.40
2023-11-19T19:21:40.704Z,3.41
2023-11-19T19:24:24.325Z,3.43
2023-11-19T19:26:52.636Z,3.44
2023-11-19T19:29:23.563Z,3.45
2023-11-19T19:31:52.556Z,3.46
2023-11-19T19:34:23.885Z,3.48
2023-11-19T19:36:56.282Z,3.47
2023-11-19T19:39:25.251Z,3.47
2023-11-19T19:41:57.050Z,3.47
2023-11-19T19:44:30.884Z,3.46
2023-11-19T19:47:02.163Z,3.45
2023-11-19T19:49:52.927Z,3.45
2023-11-19T19:52:40.706Z,3.45
2023-11-19T19:55:17.506Z,3.46
2023-11-19T19:57:45.776Z,3.47
2023-11-19T20:00:18.023Z,3.48
2023-11-19T20:02:47.573Z,3.49
2023-11-19T20:05:19.617Z,3.48
2023-11-19T20:07:52.837Z,3.48
2023-11-19T20:10:21.219Z,3.50
2023-11-19T20:12:51.527Z,3.52
2023-11-19T20:15:33.567Z,3.55
2023-11-19T20:18:02.241Z,3.58
2023-11-19T20:20:31.026Z,3.61
2023-11-19T20:22:59.399Z,3.64
2023-11-19T20:25:30.258Z,3.66
2023-11-19T20:28:04.463Z,3.69
2023-11-19T20:30:32.912Z,3.71
2023-11-19T20:33:01.598Z,3.74
2023-11-19T20:35:30.174Z,3.75
2023-11-19T20:37:58.454Z,3.76
2023-11-19T20:40:28.930Z,3.78
2023-11-19T20:42:59.344Z,3.80
2023-11-19T20:45:27.472Z,3.83
2023-11-19T20:47:56.619Z,3.85
2023-11-19T20:50:27.235Z,3.85
2023-11-19T20:53:12.081Z,3.85
2023-11-19T20:55:41.376Z,3.86
2023-11-19T20:58:13.651Z,3.87
2023-11-19T21:00:43.708Z,3.87
2023-11-19T21:03:20.248Z,3.88
2023-11-19T21:05:48.427Z,3.89
2023-11-19T21:08:16.571Z,3.89
2023-11-19T21:10:45.359Z,3.90
2023-11-19T21:13:18.900Z,3.91
2023-11-19T21:15:54.492Z,3.93
2023-11-19T21:19:08.947Z,3.95
2023-11-19T21:22:00.480Z,3.97
2023-11-19T21:24:33.300Z,3.97
2023-11-19T21:27:01.438Z,3.98
2023-11-19T21:29:29.711Z,3.98
2023-11-19T21:31:58.904Z,4.00
2023-11-19T21:34:26.966Z,4.02
2023-11-19T21:36:55.248Z,4.02
2023-11-19T21:39:23.676Z,4.02
2023-11-19T21:41:53.289Z,4.02
2023-11-19T21:44:21.937Z,4.01
2023-11-19T21:46:50.174Z,4.00
2023-11-19T21:49:18.427Z,3.99
2023-11-19T21:51:54.091Z,3.98
2023-11-19T21:54:22.288Z,3.99
2023-11-19T21:56:50.480Z,4.00
2023-11-19T21:59:18.397Z,4.01
2023-11-19T22:01:46.388Z,4.02
2023-11-19T22:04:14.578Z,4.03
2023-11-19T22:06:42.543Z,4.03
2023-11-19T22:09:10.784Z,4.05
2023-11-19T22:11:38.911Z,4.05
2023-11-19T22:14:06.980Z,4.04
2023-11-19T22:16:35.116Z,4.05
2023-11-19T22:19:03.061Z,4.05
2023-11-19T22:21:31.276Z,4.06
2023-11-19T22:23:59.360Z,4.06
2023-11-19T22:26:27.412Z,4.06
2023-11-19T22:28:55.444Z,4.06
2023-11-19T22:31:23.726Z,4.07
2023-11-19T22:33:51.797Z,4.09
2023-11-19T22:36:19.863Z,4.10
2023-11-19T22:38:47.801Z,4.10
2023-11-19T22:41:15.795Z,4.10
2023-11-19T22:43:43.831Z,4.11
2023-11-19T22:46:11.877Z,4.10
2023-11-19T22:48:39.945Z,4.11
2023-11-19T22:51:07.977Z,4.11
2023-11-19T22:53:35.882Z,4.12
2023-11-19T22:56:03.959Z,4.12
2023-11-19T22:58:31.917Z,4.12
2023-11-19T23:00:59.892Z,4.13
2023-11-19T23:03:27.995Z,4.14
2023-11-19T23:05:56.094Z,4.15
2023-11-19T23:08:23.979Z,4.15
2023-11-19T23:10:52.075Z,4.16
2023-11-19T23:13:20.043Z,4.18
2023-11-19T23:15:48.261Z,4.19
2023-11-19T23:18:16.285Z,4.19
2023-11-19T23:20:44.327Z,4.19
2023-11-19T23:23:14.209Z,4.19
2023-11-19T23:25:42.515Z,4.20
2023-11-19T23:28:13.147Z,4.20
2023-11-19T23:30:44.804Z,4.20
2023-11-19T23:33:12.755Z,4.21
2023-11-19T23:35:41.415Z,4.22
2023-11-19T23:38:09.492Z,4.23
2023-11-19T23:40:37.628Z,4.25
2023-11-19T23:43:05.805Z,4.25
2023-11-19T23:45:34.338Z,4.27
2023-11-19T23:48:02.441Z,4.28
2023-11-19T23:50:30.519Z,4.28
2023-11-19T23:52:58.484Z,4.28
2023-11-19T23:55:26.441Z,4.28
2023-11-19T23:57:54.344Z,4.28
